Time;durP1;ratioP1;P1;durP2;ratioP2;P2;SDS_P1;SDS_P2;PMS_P1;PMS_P2;Temp;Humidity;BMP_temperature;BMP_pressure;BME280_temperature;BME280_humidity;BME280_pressure;Samples;Min_cycle;Max_cycle;Signal;HPM_P1;HPM_P2
2022/11/19 00:01:28;;;;;;;58.13;28.30;;;;;;;-1.13;71.22;99785.05;2041240;87;29062;-61
2022/11/19 00:04:30;;;;;;;45.55;24.82;;;;;;;-1.10;71.21;99795.54;2076618;85;31442;-63
2022/11/19 00:07:32;;;;;;;42.70;24.23;;;;;;;-1.08;71.08;99791.14;2076076;85;34170;-61
2022/11/19 00:10:35;;;;;;;47.43;23.12;;;;;;;-1.07;71.06;99797.25;2081855;84;30548;-62
2022/11/19 00:13:40;;;;;;;57.75;29.42;;;;;;;-1.06;71.11;99797.69;2089762;84;27644;-62
2022/11/19 00:16:45;;;;;;;38.58;22.37;;;;;;;-1.05;71.13;99792.86;2074236;85;29082;-62
2022/11/19 00:19:47;;;;;;;45.05;26.48;;;;;;;-1.03;71.07;99798.97;2111336;84;32195;-63
2022/11/19 00:22:53;;;;;;;45.92;24.52;;;;;;;-1.03;71.08;99790.23;2073897;85;34364;-62
2022/11/19 00:25:55;;;;;;;36.80;20.27;;;;;;;-0.99;71.27;99801.15;2111103;84;30117;-62
2022/11/19 00:28:56;;;;;;;36.40;20.30;;;;;;;-0.98;71.16;99809.01;2074086;85;27609;-62
2022/11/19 00:31:58;;;;;;;36.75;19.92;;;;;;;-0.97;71.03;99813.80;2073956;85;29873;-63
2022/11/19 00:35:00;;;;;;;31.77;18.15;;;;;;;-0.96;71.04;99814.23;2110803;84;31052;-62
2022/11/19 00:38:02;;;;;;;33.75;19.77;;;;;;;-0.95;71.06;99805.47;2114597;84;34265;-62
2022/11/19 00:41:04;;;;;;;36.15;20.00;;;;;;;-0.91;71.17;99816.38;2083982;84;30264;-63
2022/11/19 00:44:06;;;;;;;41.73;21.48;;;;;;;-0.87;71.45;99815.47;2038690;87;27698;-62
2022/11/19 00:47:07;;;;;;;37.73;20.65;;;;;;;-0.84;71.25;99823.33;2074268;85;29830;-61
2022/11/19 00:50:09;;;;;;;32.98;19.05;;;;;;;-0.80;71.34;99824.16;2074114;85;31012;-61
2022/11/19 00:53:11;;;;;;;38.78;20.17;;;;;;;-0.79;71.12;99824.59;2073751;85;33513;-61
2022/11/19 00:56:16;;;;;;;33.73;19.62;;;;;;;-0.80;71.02;99820.22;2074097;85;29827;-61
2022/11/19 00:59:18;;;;;;;33.95;19.45;;;;;;;-0.79;71.22;99822.81;2087403;84;27711;-62
2022/11/19 01:02:19;;;;;;;31.52;18.62;;;;;;;-0.77;71.16;99828.94;2111385;84;28673;-61
2022/11/19 01:05:24;;;;;;;30.70;17.98;;;;;;;-0.77;71.09;99832.88;2110309;84;32372;-62
2022/11/19 01:08:26;;;;;;;30.30;18.20;;;;;;;-0.75;71.05;99822.80;2067072;85;33464;-61
2022/11/19 01:11:32;;;;;;;26.05;17.35;;;;;;;-0.80;70.79;99821.08;2116426;84;29382;-61
2022/11/19 01:14:34;;;;;;;30.05;17.42;;;;;;;-0.83;70.69;99824.19;2067787;86;27611;-61
2022/11/19 01:17:35;;;;;;;36.73;18.50;;;;;;;-0.84;70.76;99829.02;2116827;83;29262;-62
2022/11/19 01:20:37;;;;;;;36.70;19.98;;;;;;;-0.85;70.85;99833.85;2116498;84;33107;-62
2022/11/19 01:23:41;;;;;;;36.85;20.45;;;;;;;-0.85;70.81;99831.22;2066920;86;33504;-63
2022/11/19 01:26:43;;;;;;;33.47;19.47;;;;;;;-0.83;70.90;99836.02;2117121;83;28945;-62
2022/11/19 01:29:45;;;;;;;31.82;18.45;;;;;;;-0.86;70.87;99826.42;2115969;83;27809;-61
2022/11/19 01:32:46;;;;;;;36.38;19.67;;;;;;;-0.85;70.86;99825.53;2044574;86;29879;-62
2022/11/19 01:35:59;;;;;;;40.67;19.50;;;;;;;-0.86;70.76;99826.42;2094865;85;32237;-63
2022/11/19 01:39:01;;;;;;;37.58;19.87;;;;;;;-0.87;70.85;99830.36;2094660;85;33548;-61
2022/11/19 01:42:03;;;;;;;36.08;20.52;;;;;;;-0.92;70.83;99828.67;2094866;85;29700;-62
2022/11/19 01:45:11;;;;;;;33.95;20.15;;;;;;;-0.90;71.06;99833.91;2094651;85;28313;-61
2022/11/19 01:48:29;;;;;;;29.52;18.12;;;;;;;-0.88;71.11;99832.56;2068093;85;28652;-62
2022/11/19 01:51:38;;;;;;;31.40;17.52;;;;;;;-0.85;71.11;99841.31;2094870;85;32243;-61
2022/11/19 01:54:46;;;;;;;32.60;18.32;;;;;;;-0.83;71.24;99839.97;2081687;84;33415;-62
2022/11/19 01:57:53;;;;;;;32.45;17.45;;;;;;;-0.83;71.16;99844.80;2094923;85;29345;-62
2022/11/19 02:00:54;;;;;;;36.53;19.80;;;;;;;-0.83;71.32;99841.28;2095096;85;27697;-62
2022/11/19 02:03:59;;;;;;;38.02;20.82;;;;;;;-0.79;71.29;99853.06;2094659;85;29456;-62
2022/11/19 02:07:02;;;;;;;62.23;27.58;;;;;;;-0.77;71.19;99855.70;2107151;84;32418;-62
2022/11/19 02:10:05;;;;;;;97.08;36.93;;;;;;;-0.78;71.24;99854.81;2111062;84;33039;-62
2022/11/19 02:13:37;;;;;;;115.42;43.50;;;;;;;-0.77;71.21;99849.13;2076084;85;29339;-62
2022/11/19 02:17:05;;;;;;;80.87;32.30;;;;;;;-0.75;71.26;99849.98;2044911;87;27639;-62
2022/11/19 02:20:42;;;;;;;31.07;18.50;;;;;;;-0.75;71.16;99855.24;2045755;87;29261;-62
2022/11/19 02:24:01;;;;;;;30.48;18.23;;;;;;;-0.77;71.11;99863.13;2043458;87;31113;-62
2022/11/19 02:27:23;;;;;;;28.27;17.05;;;;;;;-0.76;71.30;99873.22;2008286;88;34274;-62
2022/11/19 02:30:25;;;;;;;31.15;18.20;;;;;;;-0.73;71.45;99877.11;2067966;86;29787;-64
2022/11/19 02:33:38;;;;;;;30.10;17.20;;;;;;;-0.74;71.34;99866.16;2044957;87;27802;-64
2022/11/19 02:37:02;;;;;;;27.02;16.65;;;;;;;-0.79;71.08;99872.79;2010128;88;28834;-63
2022/11/19 02:40:19;;;;;;;25.40;17.10;;;;;;;-0.78;71.24;99881.11;1997769;88;32307;-63
2022/11/19 02:43:31;;;;;;;33.50;16.87;;;;;;;-0.78;71.15;99879.79;2010400;88;33383;-61
2022/11/19 02:46:33;;;;;;;29.55;16.67;;;;;;;-0.78;71.23;99883.73;2008092;88;29258;-63
2022/11/19 02:49:40;;;;;;;39.80;20.05;;;;;;;-0.77;71.33;99876.28;2010498;88;27620;-62
2022/11/19 02:52:43;;;;;;;29.48;17.77;;;;;;;-0.77;71.12;99882.85;2021504;85;29519;-62
2022/11/19 02:56:09;;;;;;;26.95;17.00;;;;;;;-0.75;71.22;99891.17;2073867;85;31159;-63
2022/11/19 03:05:38;;;;;;;19.67;13.53;;;;;;;-0.73;70.90;99885.45;2109516;84;27676;-62
2022/11/19 03:08:39;;;;;;;26.45;15.03;;;;;;;-0.73;70.58;99887.63;2101792;84;29601;-62
2022/11/19 03:11:43;;;;;;;22.98;14.18;;;;;;;-0.73;70.72;99890.27;2103458;84;31496;-61
2022/11/19 03:18:31;;;;;;;21.93;13.85;;;;;;;-0.79;70.56;99890.34;2103439;84;30246;-62
2022/11/19 03:21:47;;;;;;;22.05;14.55;;;;;;;-0.84;70.36;99893.02;2104004;84;27583;-61
2022/11/19 03:24:59;;;;;;;27.15;15.35;;;;;;;-0.89;70.37;99896.55;2068716;84;29051;-62
2022/11/19 03:28:06;;;;;;;25.48;16.12;;;;;;;-0.99;70.16;99894.48;2066833;85;32308;-62
2022/11/19 03:31:08;;;;;;;24.57;16.02;;;;;;;-1.08;70.34;99902.00;2066807;85;33030;-61
2022/11/19 03:34:14;;;;;;;31.33;17.02;;;;;;;-1.16;70.23;99898.55;2066826;86;30604;-62
2022/11/19 03:37:18;;;;;;;27.42;17.12;;;;;;;-1.28;70.17;99902.14;2067344;85;27605;-62
2022/11/19 03:40:22;;;;;;;29.93;17.87;;;;;;;-1.38;70.17;99898.28;2067464;85;29475;-61
2022/11/19 03:43:27;;;;;;;24.80;16.57;;;;;;;-1.51;70.06;99896.63;2067009;86;31955;-61
2022/11/19 03:46:30;;;;;;;29.77;16.73;;;;;;;-1.62;70.12;99904.57;2067199;86;33470;-61
2022/11/19 03:49:36;;;;;;;30.68;16.73;;;;;;;-1.76;70.03;99910.35;2067141;86;29349;-61
2022/11/19 03:52:37;;;;;;;32.53;17.42;;;;;;;-1.87;70.22;99913.03;2069209;84;27778;-62
2022/11/19 03:55:58;;;;;;;31.50;16.75;;;;;;;-1.97;70.32;99921.81;2066799;86;28642;-62
2022/11/19 03:59:00;;;;;;;26.23;16.27;;;;;;;-2.06;70.38;99924.03;2067113;86;31430;-61
2022/11/19 04:02:06;;;;;;;28.17;16.40;;;;;;;-2.16;70.51;99927.16;2044095;86;33120;-62
2022/11/19 04:05:08;;;;;;;30.70;17.55;;;;;;;-2.23;70.62;99934.16;2067023;85;29350;-62
2022/11/19 04:08:10;;;;;;;35.83;18.55;;;;;;;-2.32;70.72;99932.88;2066750;85;27773;-61
2022/11/19 04:11:11;;;;;;;37.40;20.35;;;;;;;-2.40;70.74;99935.53;2066855;85;29940;-62
2022/11/19 04:14:13;;;;;;;33.70;19.17;;;;;;;-2.46;70.80;99935.53;2066768;85;31471;-61
2022/11/19 04:17:15;;;;;;;32.90;18.35;;;;;;;-2.55;70.83;99931.63;2067189;85;33407;-61
2022/11/19 04:20:17;;;;;;;36.48;18.30;;;;;;;-2.64;70.92;99939.94;2066799;86;29287;-61
2022/11/19 04:23:20;;;;;;;37.38;19.77;;;;;;;-2.75;70.88;99936.05;2083700;84;27704;-61
2022/11/19 04:26:27;;;;;;;33.10;19.00;;;;;;;-2.84;70.87;99947.83;2103751;84;29093;-61
2022/11/19 04:29:31;;;;;;;35.90;19.35;;;;;;;-2.93;71.05;99947.84;2103300;84;31067;-61
2022/11/19 04:32:33;;;;;;;33.67;18.55;;;;;;;-3.01;71.11;99949.58;2103668;84;33365;-61
2022/11/19 04:35:34;;;;;;;33.55;19.25;;;;;;;-3.11;71.10;99956.14;2103913;84;29796;-60
2022/11/19 04:38:36;;;;;;;33.75;19.45;;;;;;;-3.19;71.21;99957.87;2104011;84;27648;-61
2022/11/19 04:41:39;;;;;;;37.13;20.25;;;;;;;-3.27;71.32;99970.95;2104044;84;29084;-60
2022/11/19 04:44:41;;;;;;;35.08;19.32;;;;;;;-3.35;71.43;99967.47;2104006;84;31478;-60
2022/11/19 04:47:42;;;;;;;33.98;18.65;;;;;;;-3.45;71.49;99973.12;2103894;84;32760;-60
2022/11/19 04:50:44;;;;;;;40.30;20.17;;;;;;;-3.52;71.69;99971.34;2103897;84;29100;-60
2022/11/19 04:53:46;;;;;;;41.77;22.62;;;;;;;-3.58;71.73;99972.66;2101668;84;27651;-60
2022/11/19 04:56:48;;;;;;;49.38;23.90;;;;;;;-3.67;71.82;99977.42;2103489;84;29907;-60
2022/11/19 04:59:50;;;;;;;41.68;22.17;;;;;;;-3.74;71.94;99973.02;2103715;84;31883;-60
2022/11/19 05:02:51;;;;;;;43.55;23.05;;;;;;;-3.79;72.09;99976.05;2103461;84;32939;-60
2022/11/19 05:05:53;;;;;;;43.73;22.13;;;;;;;-3.86;72.06;99977.77;2103646;84;29717;-62
2022/11/19 05:08:55;;;;;;;42.73;22.90;;;;;;;-3.92;72.19;99972.53;2103701;84;27696;-61
2022/11/19 05:11:56;;;;;;;41.85;22.90;;;;;;;-3.98;72.34;99975.55;2103902;84;29927;-61
2022/11/19 05:14:58;;;;;;;44.95;23.02;;;;;;;-4.04;72.38;99970.28;2103518;84;31644;-63
2022/11/19 05:17:59;;;;;;;39.65;21.05;;;;;;;-4.09;72.47;99974.64;2103855;84;33392;-61
2022/11/19 05:21:01;;;;;;;45.75;23.45;;;;;;;-4.15;72.51;99977.22;2103560;84;29762;-61
2022/11/19 05:24:03;;;;;;;45.23;23.05;;;;;;;-4.19;72.60;99975.44;2075966;84;28294;-63
2022/11/19 05:27:05;;;;;;;49.90;24.47;;;;;;;-4.25;72.68;99982.83;2067576;86;29030;-60
2022/11/19 05:30:08;;;;;;;41.65;23.00;;;;;;;-4.32;72.79;99980.61;2067328;86;32044;-60
2022/11/19 05:33:10;;;;;;;42.03;23.60;;;;;;;-4.35;72.88;99986.27;2067179;86;32985;-60
2022/11/19 05:36:12;;;;;;;49.27;25.68;;;;;;;-4.42;73.00;99982.74;2067219;86;29699;-60
2022/11/19 05:39:13;;;;;;;45.58;22.30;;;;;;;-4.46;73.12;99984.44;2067044;86;27658;-60
2022/11/19 05:42:15;;;;;;;44.50;23.77;;;;;;;-4.49;73.22;99999.24;2067262;85;29149;-60
2022/11/19 05:45:17;;;;;;;46.13;24.25;;;;;;;-4.51;73.34;99995.73;2066932;86;31914;-60
2022/11/19 05:48:22;;;;;;;49.23;24.77;;;;;;;-4.53;73.54;100003.58;2066814;85;34196;-60
2022/11/19 05:51:24;;;;;;;53.90;23.83;;;;;;;-4.53;73.68;100003.58;2067189;86;29787;-60
2022/11/19 05:54:25;;;;;;;52.43;26.12;;;;;;;-4.54;73.80;100009.67;2069361;84;27650;-60
2022/11/19 05:57:27;;;;;;;50.03;25.02;;;;;;;-4.54;73.85;100014.01;2067233;86;29781;-60
2022/11/19 06:00:29;;;;;;;56.92;26.75;;;;;;;-4.56;73.84;100016.63;2066929;86;31454;-61
2022/11/19 06:03:31;;;;;;;55.58;26.85;;;;;;;-4.59;73.82;100017.48;2067194;86;34148;-60
2022/11/19 06:06:33;;;;;;;69.80;31.62;;;;;;;-4.61;73.82;100022.23;2068023;85;29396;-61
2022/11/19 06:09:38;;;;;;;53.85;27.00;;;;;;;-4.65;73.92;100025.72;2074299;85;27601;-60
2022/11/19 06:12:42;;;;;;;68.70;29.87;;;;;;;-4.66;73.94;100026.58;2074445;85;28675;-62
2022/11/19 06:15:44;;;;;;;66.67;31.42;;;;;;;-4.68;73.99;100046.14;2074215;85;31044;-61
2022/11/19 06:18:46;;;;;;;59.90;27.73;;;;;;;-4.70;73.98;100047.87;2074494;85;33390;-60
2022/11/19 06:21:48;;;;;;;54.83;27.45;;;;;;;-4.76;74.02;100055.23;2077881;84;29702;-60
2022/11/19 06:24:49;;;;;;;59.13;30.02;;;;;;;-4.77;74.10;100056.53;2082861;84;27769;-60
2022/11/19 06:27:51;;;;;;;61.35;30.57;;;;;;;-4.77;74.24;100059.15;2074355;85;29218;-60
2022/11/19 06:30:52;;;;;;;71.12;31.60;;;;;;;-4.78;74.33;100056.95;2074403;85;31040;-60
2022/11/19 06:33:54;;;;;;;71.45;31.52;;;;;;;-4.77;74.38;100050.00;2074321;85;34266;-60
2022/11/19 06:36:57;;;;;;;69.85;32.05;;;;;;;-4.77;74.39;100053.47;2074418;85;30464;-60
2022/11/19 06:39:59;;;;;;;75.65;36.55;;;;;;;-4.77;74.51;100049.55;2074302;85;27623;-60
2022/11/19 06:43:00;;;;;;;76.00;35.00;;;;;;;-4.74;74.60;100066.58;2074418;85;29088;-60
2022/11/19 06:46:02;;;;;;;71.53;34.58;;;;;;;-4.73;74.67;100058.32;2073930;85;32266;-60
2022/11/19 06:49:04;;;;;;;70.28;35.08;;;;;;;-4.71;74.70;100064.41;2074353;85;33992;-60
2022/11/19 06:52:06;;;;;;;68.75;31.42;;;;;;;-4.69;74.74;100060.52;2076318;84;29779;-60
2022/11/19 06:55:08;;;;;;;70.22;34.63;;;;;;;-4.66;74.90;100060.55;2074485;85;27699;-60
2022/11/19 06:58:10;;;;;;;69.05;33.20;;;;;;;-4.63;74.96;100065.81;2074190;85;29468;-60
2022/11/19 07:01:13;;;;;;;70.67;35.20;;;;;;;-4.59;75.08;100063.64;2074445;85;31220;-60
2022/11/19 07:04:16;;;;;;;63.73;32.63;;;;;;;-4.54;75.14;100068.48;2074292;85;34216;-60
2022/11/19 07:07:18;;;;;;;74.10;34.85;;;;;;;-4.50;75.23;100072.89;2038464;86;29806;-60
2022/11/19 07:10:19;;;;;;;70.28;33.55;;;;;;;-4.44;75.40;100078.14;2100413;84;27650;-60
2022/11/19 07:13:21;;;;;;;74.27;35.73;;;;;;;-4.37;75.43;100077.75;2110856;84;28613;-60
2022/11/19 07:16:28;;;;;;;78.35;35.63;;;;;;;-4.28;75.52;100075.64;2110753;84;32351;-60
2022/11/19 07:19:30;;;;;;;101.12;39.98;;;;;;;-4.20;75.64;100077.90;2098110;84;32739;-60
2022/11/19 07:22:32;;;;;;;145.85;48.30;;;;;;;-4.08;75.84;100078.84;2107698;84;30107;-62
2022/11/19 07:25:33;;;;;;;160.70;54.25;;;;;;;-3.97;75.90;100083.27;2101493;84;27726;-62
2022/11/19 07:28:35;;;;;;;163.72;54.63;;;;;;;-3.86;76.02;100080.73;2094042;84;28849;-63
2022/11/19 07:31:36;;;;;;;169.47;59.98;;;;;;;-3.71;76.11;100080.36;2066686;85;32423;-60
2022/11/19 07:34:38;;;;;;;189.10;63.83;;;;;;;-3.58;76.10;100087.41;2073534;84;32836;-61
2022/11/19 07:37:39;;;;;;;154.15;57.93;;;;;;;-3.45;76.14;100088.34;2110879;84;29401;-63
2022/11/19 07:40:41;;;;;;;141.60;55.23;;;;;;;-3.29;76.20;100085.33;2109927;84;27575;-61
2022/11/19 07:43:42;;;;;;;119.97;48.00;;;;;;;-3.17;76.18;100081.88;2116851;82;29846;-62
2022/11/19 07:46:44;;;;;;;129.45;49.05;;;;;;;-3.05;76.18;100077.97;2151290;82;31903;-62
2022/11/19 07:49:46;;;;;;;108.47;48.25;;;;;;;-2.94;76.04;100079.77;2083028;82;35050;-63
2022/11/19 07:52:47;;;;;;;101.27;43.73;;;;;;;-2.82;76.06;100080.23;2100429;84;29777;-64
2022/11/19 07:55:49;;;;;;;100.80;44.27;;;;;;;-2.71;76.05;100085.45;2055050;86;27803;-61
2022/11/19 07:58:51;;;;;;;81.17;40.45;;;;;;;-2.62;76.00;100090.28;2075536;85;29895;-61
2022/11/19 08:01:53;;;;;;;75.00;36.80;;;;;;;-2.53;75.91;100088.09;2138025;83;32262;-61
2022/11/19 08:04:54;;;;;;;75.10;35.43;;;;;;;-2.42;75.97;100092.49;2152317;82;33397;-61
2022/11/19 08:07:56;;;;;;;66.30;32.88;;;;;;;-2.34;75.94;100087.69;2148666;82;29756;-64
2022/11/19 08:11:04;;;;;;;63.33;32.48;;;;;;;-2.24;76.02;100083.31;2121614;83;27677;-61
2022/11/19 08:14:06;;;;;;;53.48;28.20;;;;;;;-2.12;76.02;100086.78;2142624;83;28877;-61
2022/11/19 08:20:28;;;;;;;56.88;27.70;;;;;;;-1.91;75.90;100092.02;2143077;82;34083;-63
2022/11/19 08:23:30;;;;;;;55.80;29.12;;;;;;;-1.80;75.71;100080.59;2142664;83;30507;-63
2022/11/19 08:26:31;;;;;;;48.85;27.77;;;;;;;-1.67;75.83;100084.94;2108440;82;27528;-60
2022/11/19 08:29:33;;;;;;;51.20;27.42;;;;;;;-1.54;75.57;100080.52;2077335;85;29058;-62
2022/11/19 08:32:36;;;;;;;47.13;25.02;;;;;;;-1.48;75.38;100078.30;2102599;84;30821;-62
2022/11/19 08:35:37;;;;;;;45.05;24.85;;;;;;;-1.37;75.26;100075.19;2114111;84;34156;-62
2022/11/19 08:38:39;;;;;;;43.65;23.92;;;;;;;-1.23;75.27;100073.81;2113909;84;31447;-62
2022/11/19 08:45:00;;;;;;;37.63;22.45;;;;;;;-1.04;74.96;100071.95;2114015;84;29102;-61
2022/11/19 08:48:05;;;;;;;36.25;22.55;;;;;;;-0.97;74.76;100068.84;2114263;84;31432;-61
2022/11/19 08:51:13;;;;;;;43.65;23.92;;;;;;;-0.90;74.61;100062.67;2113421;84;32430;-62
2022/11/19 08:54:14;;;;;;;45.92;23.80;;;;;;;-0.82;73.98;100075.77;2113987;84;29341;-61
2022/11/19 08:57:15;;;;;;;44.18;25.75;;;;;;;-0.76;74.04;100073.11;2112075;84;27538;-61
2022/11/19 09:00:19;;;;;;;44.73;25.62;;;;;;;-0.67;74.23;100080.92;2114014;84;29123;-62
2022/11/19 09:03:21;;;;;;;45.23;26.33;;;;;;;-0.55;73.93;100083.91;2112018;84;31080;-61
2022/11/19 09:06:22;;;;;;;38.67;22.85;;;;;;;-0.48;73.97;100093.48;2113935;84;33828;-61
2022/11/19 09:09:24;;;;;;;40.50;24.40;;;;;;;-0.39;73.85;100093.00;2099530;84;30652;-61
2022/11/19 09:12:29;;;;;;;40.30;24.10;;;;;;;-0.34;73.77;100089.44;2094562;85;27710;-61
2022/11/19 09:15:31;;;;;;;41.33;25.88;;;;;;;-0.32;73.50;100098.63;2094386;83;29271;-61
2022/11/19 09:18:34;;;;;;;41.00;25.27;;;;;;;-0.29;73.29;100103.88;2095123;85;31468;-60
2022/11/19 09:21:35;;;;;;;45.12;26.27;;;;;;;-0.24;73.27;100102.09;2094748;85;32979;-60
2022/11/19 09:24:37;;;;;;;49.20;27.10;;;;;;;-0.19;73.11;100108.62;2094437;85;29908;-61
2022/11/19 09:27:39;;;;;;;39.18;24.00;;;;;;;-0.20;72.73;100106.45;2080445;85;27627;-60
2022/11/19 09:30:40;;;;;;;39.95;24.02;;;;;;;-0.13;72.79;100104.63;2080066;85;29063;-67
2022/11/19 09:33:46;;;;;;;40.43;24.40;;;;;;;-0.12;72.03;100102.85;2079945;85;32288;-68
2022/11/19 09:36:47;;;;;;;39.45;24.10;;;;;;;-0.10;72.26;100108.98;2093355;84;34138;-67
2022/11/19 09:39:49;;;;;;;45.73;25.82;;;;;;;0.01;72.34;100104.48;2113293;84;29768;-68
2022/11/19 09:43:08;;;;;;;40.80;24.37;;;;;;;0.11;72.21;100094.30;2087518;85;27633;-69
2022/11/19 09:46:32;;;;;;;42.40;26.27;;;;;;;0.23;72.17;100088.47;2013091;87;29075;-65
2022/11/19 09:49:46;;;;;;;41.68;24.45;;;;;;;0.33;71.72;100083.98;2072507;85;32225;-69
2022/11/19 09:53:02;;;;;;;40.50;25.40;;;;;;;0.40;71.50;100085.66;2093278;84;33046;-69
2022/11/19 09:56:04;;;;;;;;;;;;;;;0.45;71.40;100083.83;2069007;85;29689;-67
2022/11/19 09:59:35;;;;;;;38.78;23.07;;;;;;;0.47;70.81;100079.42;2033375;85;27731;-68
2022/11/19 10:02:37;;;;;;;29.80;19.95;;;;;;;0.48;70.88;100083.80;2044354;87;29892;-68
2022/11/19 10:06:15;;;;;;;38.83;23.12;;;;;;;0.55;70.78;100084.17;2103018;84;32321;-67
2022/11/19 10:09:34;;;;;;;34.23;21.70;;;;;;;0.66;71.11;100088.00;2102726;84;33107;-66
2022/11/19 10:13:12;;;;;;;37.08;23.73;;;;;;;0.80;70.90;100075.94;2111091;84;29487;-68
2022/11/19 10:16:31;;;;;;;32.38;20.57;;;;;;;0.87;70.90;100086.84;2074440;85;27836;-69
2022/11/19 10:20:10;;;;;;;30.30;19.45;;;;;;;0.96;69.89;100083.20;2074376;85;29837;-68
2022/11/19 10:23:21;;;;;;;32.23;17.73;;;;;;;1.01;70.47;100082.67;2111026;84;32205;-66
2022/11/19 10:26:28;;;;;;;31.50;18.45;;;;;;;1.11;70.00;100084.73;2092435;84;33606;-67
2022/11/19 10:29:33;;;;;;;32.73;17.95;;;;;;;1.23;70.09;100078.42;2101530;84;30509;-67
2022/11/19 10:33:09;;;;;;;75.15;30.72;;;;;;;1.30;69.62;100074.81;2076586;84;28258;-69
2022/11/19 10:36:16;;;;;;;33.63;20.27;;;;;;;1.33;69.05;100079.16;2098975;84;29136;-68
2022/11/19 10:39:40;;;;;;;31.90;19.60;;;;;;;1.31;68.58;100069.95;2110085;84;32291;-68
2022/11/19 10:42:49;;;;;;;31.97;19.12;;;;;;;1.30;68.77;100070.84;2109151;84;33402;-68
2022/11/19 10:45:51;;;;;;;33.30;19.92;;;;;;;1.32;68.62;100064.22;2110481;84;30109;-68
2022/11/19 10:48:57;;;;;;;33.98;20.88;;;;;;;1.32;68.22;100066.42;2071302;85;27695;-67
2022/11/19 10:51:58;;;;;;;36.00;21.33;;;;;;;1.33;68.43;100064.17;2103060;84;29946;-68
2022/11/19 10:55:23;;;;;;;35.13;22.32;;;;;;;1.29;68.24;100055.91;2106638;84;31068;-69
2022/11/19 10:58:38;;;;;;;32.67;20.82;;;;;;;1.29;68.25;100056.34;2049223;85;33092;-68
2022/11/19 11:01:43;;;;;;;35.68;20.65;;;;;;;1.28;68.11;100049.31;2097553;84;30440;-68
2022/11/19 11:05:12;;;;;;;30.85;19.90;;;;;;;1.29;68.24;100055.91;2110613;84;27622;-69
2022/11/19 11:08:14;;;;;;;36.42;19.80;;;;;;;1.33;68.06;100061.53;2109187;84;28723;-69
2022/11/19 11:14:50;;;;;;;33.98;18.87;;;;;;;1.46;67.66;100060.05;1999554;88;32979;-68
2022/11/19 11:18:09;;;;;;;26.07;15.65;;;;;;;1.55;67.44;100057.71;2053527;86;30576;-69
2022/11/19 11:21:19;;;;;;;23.57;15.23;;;;;;;1.64;67.39;100055.79;1999578;89;27693;-69
2022/11/19 11:24:22;;;;;;;29.98;19.07;;;;;;;1.77;66.67;100056.42;2052709;86;29085;-68
2022/11/19 11:27:33;;;;;;;22.62;14.33;;;;;;;1.91;66.72;100048.70;1999249;89;30469;-68
2022/11/19 11:30:34;;;;;;;23.25;14.07;;;;;;;2.00;65.88;100044.59;2034314;86;34330;-68
2022/11/19 11:33:54;;;;;;;28.05;16.32;;;;;;;2.07;66.24;100036.95;2028462;87;29964;-68
2022/11/19 11:36:58;;;;;;;24.32;14.20;;;;;;;2.17;66.09;100046.04;2029902;87;27702;-68
2022/11/19 11:40:00;;;;;;;20.80;12.10;;;;;;;2.19;65.82;100034.99;2029926;87;28699;-69
2022/11/19 11:43:01;;;;;;;15.20;10.85;;;;;;;2.19;64.41;100025.28;2029978;87;32272;-69
2022/11/19 11:46:08;;;;;;;20.57;13.78;;;;;;;2.12;64.75;100025.00;2030137;87;33919;-67
2022/11/19 11:49:32;;;;;;;21.62;14.33;;;;;;;2.07;64.80;100024.20;2022023;87;29333;-69
2022/11/19 11:52:43;;;;;;;17.95;11.43;;;;;;;2.05;64.77;100021.61;2093049;84;27735;-69
2022/11/19 11:55:45;;;;;;;20.20;12.00;;;;;;;1.96;63.61;100021.33;2092806;85;28839;-69
2022/11/19 11:58:46;;;;;;;18.35;12.05;;;;;;;1.86;63.46;100024.16;2077838;85;31858;-65
2022/11/19 12:01:57;;;;;;;32.28;18.12;;;;;;;1.81;63.45;100029.07;2075894;85;33087;-68
2022/11/19 12:05:03;;;;;;;34.50;21.17;;;;;;;1.74;63.45;100031.85;2103839;83;29372;-66
2022/11/19 12:08:10;;;;;;;30.60;18.60;;;;;;;1.72;63.68;100028.36;2115804;84;28195;-68
2022/11/19 12:11:54;;;;;;;33.92;20.35;;;;;;;1.66;63.84;100027.56;2091501;85;28683;-68
2022/11/19 12:15:19;;;;;;;41.88;24.25;;;;;;;1.65;64.00;100027.59;2092431;85;32521;-67
2022/11/19 12:18:38;;;;;;;32.10;18.23;;;;;;;1.65;63.50;100026.28;2059990;86;33424;-67
2022/11/19 12:22:26;;;;;;;28.87;17.35;;;;;;;1.60;63.38;100029.44;2070575;85;29443;-67
2022/11/19 12:25:59;;;;;;;23.67;14.43;;;;;;;1.54;63.21;100026.46;2092167;85;28187;-66
2022/11/19 12:29:32;;;;;;;27.22;14.93;;;;;;;1.49;63.16;100025.69;2077800;85;29941;-66
2022/11/19 12:32:48;;;;;;;25.70;13.98;;;;;;;1.42;62.60;100020.08;2039816;87;32239;-68
2022/11/19 12:36:04;;;;;;;17.82;11.15;;;;;;;1.38;62.85;100027.18;2039585;87;34225;-68
2022/11/19 12:39:41;;;;;;;15.48;10.58;;;;;;;1.35;62.85;100028.55;2025433;86;30310;-68
2022/11/19 12:43:20;;;;;;;20.23;12.75;;;;;;;1.38;63.15;100030.25;2077787;85;27720;-68
2022/11/19 12:46:33;;;;;;;18.60;11.53;;;;;;;1.34;62.90;100030.30;2077274;85;28450;-67
2022/11/19 12:50:03;;;;;;;20.02;13.08;;;;;;;1.34;62.55;100022.38;2092401;85;31421;-67
2022/11/19 12:53:24;;;;;;;18.05;12.85;;;;;;;1.32;61.96;100019.35;2077880;85;33343;-67
2022/11/19 12:56:45;;;;;;;23.52;13.78;;;;;;;1.27;62.18;100016.80;2107821;84;30404;-68
2022/11/19 13:00:20;;;;;;;22.48;13.25;;;;;;;1.25;61.96;100020.33;2076153;85;27546;-67
2022/11/19 13:03:43;;;;;;;20.10;12.47;;;;;;;1.20;61.87;100021.30;2103812;84;28681;-67
2022/11/19 13:06:56;;;;;;;21.68;12.68;;;;;;;1.18;62.08;100016.49;2076069;85;31825;-66
2022/11/19 13:10:22;;;;;;;18.98;12.20;;;;;;;1.20;61.70;100017.77;2077318;85;33374;-67
2022/11/19 13:13:26;;;;;;;;;;;;;;;1.18;61.03;100010.33;2081074;85;29669;-67
2022/11/19 13:16:29;;;;;;;18.35;10.78;;;;;;;1.11;60.95;100012.19;2078868;85;27677;-67
2022/11/19 13:19:34;;;;;;;15.63;9.63;;;;;;;1.07;61.12;100011.84;2052116;86;29867;-67
2022/11/19 13:22:38;;;;;;;;;;;;;;;1.02;60.98;100013.66;2060950;86;30459;-68
2022/11/19 13:25:47;;;;;;;20.45;12.80;;;;;;;0.98;60.74;100011.95;2077802;85;33950;-66
2022/11/19 13:29:12;;;;;;;21.93;12.82;;;;;;;0.94;61.05;100004.55;2044985;86;28794;-67
2022/11/19 13:32:28;;;;;;;20.92;13.53;;;;;;;0.93;61.25;100006.77;2056805;86;27672;-68
2022/11/19 13:36:08;;;;;;;20.57;12.70;;;;;;;0.90;61.37;100009.44;2056743;86;29062;-68
2022/11/19 13:39:29;;;;;;;22.10;13.60;;;;;;;0.89;61.41;100003.73;2056243;86;31167;-70
2022/11/19 13:46:11;;;;;;;27.52;14.90;;;;;;;0.85;61.60;100009.51;2055851;86;30493;-66
2022/11/19 13:49:27;;;;;;;24.72;14.83;;;;;;;0.84;61.33;100013.04;2056635;86;27681;-66
2022/11/19 13:52:37;;;;;;;24.98;13.32;;;;;;;0.78;61.33;100009.16;2056823;86;29077;-67
2022/11/19 13:55:40;;;;;;;21.55;13.22;;;;;;;0.78;61.07;100012.26;2056629;86;30874;-67
2022/11/19 13:58:48;;;;;;;21.73;12.43;;;;;;;0.74;61.37;100004.84;2056344;86;33491;-65
2022/11/19 14:01:58;;;;;;;21.17;12.05;;;;;;;0.72;61.00;100005.31;2056777;86;29710;-65
2022/11/19 14:05:27;;;;;;;19.45;12.40;;;;;;;0.66;60.47;100002.31;2055426;86;27614;-67
2022/11/19 14:08:49;;;;;;;18.52;12.53;;;;;;;0.60;60.50;100003.70;2056483;86;29281;-66
2022/11/19 14:12:12;;;;;;;18.77;11.63;;;;;;;0.59;60.90;100001.96;2079497;85;31169;-66
2022/11/19 14:29:28;;;;;;;22.40;14.63;;;;;;;0.52;61.34;99997.65;2080344;85;31192;-68
2022/11/19 14:32:43;;;;;;;21.77;13.95;;;;;;;0.48;61.01;100004.73;2080399;85;34278;-72
2022/11/19 14:35:46;;;;;;;26.20;16.40;;;;;;;0.44;61.11;100008.30;2079760;85;29725;-68
2022/11/19 14:38:58;;;;;;;23.70;14.98;;;;;;;0.42;61.14;100007.02;2078581;85;27707;-67
2022/11/19 14:42:21;;;;;;;25.10;16.07;;;;;;;0.38;61.24;100003.98;2095541;84;28662;-67
2022/11/19 14:45:23;;;;;;;29.30;18.37;;;;;;;0.35;61.34;100007.96;2080578;85;31043;-67
2022/11/19 14:48:24;;;;;;;26.57;15.60;;;;;;;0.31;61.40;100006.28;2115786;84;33435;-67
2022/11/19 14:51:33;;;;;;;26.50;15.68;;;;;;;0.25;61.29;100006.34;2115465;84;29444;-68
2022/11/19 14:54:42;;;;;;;25.92;16.05;;;;;;;0.21;61.53;100008.16;2094425;84;27616;-68
2022/11/19 14:57:52;;;;;;;27.25;16.60;;;;;;;0.16;61.62;100000.74;2079671;85;29127;-66